CMA CGM Hugo — DCTA2 — position and weather

sailwx.info

Track history (hours):
 
Tides and Currents Weather Stations Pressure Air Temp Water Temp Dewpoint Dewpoint Depression Visibility Wind Speed Wind Dir Waves Ship Positions

CMA CGM Hugo

Last reported at 2015-Aug-28 05:14 UTC. Time now 2015-Sep-01 22:26 UTC.
Position N 23°58' E 118°44'.

Length 334.1 m; beam 42.8 m; draft 14.5 m.

Type: Ship. MMSI: 211831000.

Date/timePositionNaut miles runAvg speedWind from/ knotsBaromVisibWave heightAir tempDewpointWater temp
2015-Aug-28 05:14N 23°58' E 118°44'20 5.3
2015-Aug-28 01:27N 23°46' E 118°27'8915.0
2015-Aug-27 19:29N 22°58' E 117°05'1313.8
2015-Aug-27 18:33N 22°51' E 116°53'13114.5
2015-Aug-27 09:29N 22°08' E 114°38'1314.1
2015-Aug-27 08:32N 22°08' E 114°24'1211.9
2015-Aug-27 07:32N 22°11' E 114°11'10 9.9
2015-Aug-27 06:33N 22°19' E 114°07'1 0.3
2015-Aug-27 03:06N 22°20' E 114°08'0 0.0
2015-Aug-27 02:08N 22°20' E 114°08'0 0.0
2015-Aug-27 01:20N 22°20' E 114°08'0 0.0
2015-Aug-27 00:20N 22°20' E 114°08'0 0.0
2015-Aug-26 22:31N 22°20' E 114°08'0 0.0
2015-Aug-26 21:18N 22°20' E 114°08'0 0.0
2015-Aug-26 20:27N 22°20' E 114°08'0 0.0
2015-Aug-26 18:32N 22°20' E 114°08'0 0.0
2015-Aug-26 17:29N 22°20' E 114°08'0 0.0
2015-Aug-26 16:16N 22°20' E 114°08'0 0.0
2015-Aug-26 15:31N 22°20' E 114°08'0 0.0
2015-Aug-26 14:30N 22°20' E 114°08'3 2.7
2015-Aug-26 13:33N 22°18' E 114°06'1110.0
2015-Aug-26 12:29N 22°09' E 114°13'1010.9
2015-Aug-26 11:34N 22°08' E 114°24'6 5.9
2015-Aug-26 10:30N 22°02' E 114°24'  
2015-Aug-22 10:33N 01°16' E 104°06'1413.8
2015-Aug-22 09:33N 01°12' E 103°52'9 9.0
2015-Aug-22 08:33N 01°17' E 103°45'1 0.8
2015-Aug-22 07:33N 01°17' E 103°46'0 0.0
2015-Aug-22 06:26N 01°17' E 103°46'0 0.0
2015-Aug-22 05:32N 01°17' E 103°46'0 0.0
2015-Aug-22 04:13N 01°17' E 103°46'0 0.0
2015-Aug-22 03:25N 01°17' E 103°46'0 0.0
2015-Aug-21 14:22N 01°17' E 103°46'13 3.5
2015-Aug-21 10:33N 01°11' E 103°34'13513.5
2015-Aug-21 00:33N 02°23' E 101°41'2015.7
2015-Aug-20 23:19N 02°35' E 101°25'2816.1
2015-Aug-20 21:34N 02°48' E 101°00'3216.1
2015-Aug-20 19:33N 03°09' E 100°35'65813.3
2015-Aug-18 18:00N 01°48' E 089°42'   150 / 111013.0 1.528.524.428.0
Track history (hours):
 
Tides and Currents Weather Stations Pressure Air Temp Water Temp Dewpoint Dewpoint Depression Visibility Wind Speed Wind Dir Waves Ship Positions

CMA CGM Hugo

Last reported at 2015-Aug-28 05:14 UTC. Time now 2015-Sep-01 22:26 UTC.
Position N 23°58' E 118°44'.

Length 334.1 m; beam 42.8 m; draft 14.5 m.

Type: Ship. MMSI: 211831000.

Date/timePositionNaut miles runAvg speedWind from/ knotsBaromVisibWave heightAir tempDewpointWater temp
2015-Aug-28 05:14N 23°58' E 118°44'20 5.3
2015-Aug-28 01:27N 23°46' E 118°27'8915.0
2015-Aug-27 19:29N 22°58' E 117°05'1313.8
2015-Aug-27 18:33N 22°51' E 116°53'13114.5
2015-Aug-27 09:29N 22°08' E 114°38'1314.1
2015-Aug-27 08:32N 22°08' E 114°24'1211.9
2015-Aug-27 07:32N 22°11' E 114°11'10 9.9
2015-Aug-27 06:33N 22°19' E 114°07'1 0.3
2015-Aug-27 03:06N 22°20' E 114°08'0 0.0
2015-Aug-27 02:08N 22°20' E 114°08'0 0.0
2015-Aug-27 01:20N 22°20' E 114°08'0 0.0
2015-Aug-27 00:20N 22°20' E 114°08'0 0.0
2015-Aug-26 22:31N 22°20' E 114°08'0 0.0
2015-Aug-26 21:18N 22°20' E 114°08'0 0.0
2015-Aug-26 20:27N 22°20' E 114°08'0 0.0
2015-Aug-26 18:32N 22°20' E 114°08'0 0.0
2015-Aug-26 17:29N 22°20' E 114°08'0 0.0
2015-Aug-26 16:16N 22°20' E 114°08'0 0.0
2015-Aug-26 15:31N 22°20' E 114°08'0 0.0
2015-Aug-26 14:30N 22°20' E 114°08'3 2.7
2015-Aug-26 13:33N 22°18' E 114°06'1110.0
2015-Aug-26 12:29N 22°09' E 114°13'1010.9
2015-Aug-26 11:34N 22°08' E 114°24'6 5.9
2015-Aug-26 10:30N 22°02' E 114°24'  
2015-Aug-22 10:33N 01°16' E 104°06'1413.8
2015-Aug-22 09:33N 01°12' E 103°52'9 9.0
2015-Aug-22 08:33N 01°17' E 103°45'1 0.8
2015-Aug-22 07:33N 01°17' E 103°46'0 0.0
2015-Aug-22 06:26N 01°17' E 103°46'0 0.0
2015-Aug-22 05:32N 01°17' E 103°46'0 0.0
2015-Aug-22 04:13N 01°17' E 103°46'0 0.0
2015-Aug-22 03:25N 01°17' E 103°46'0 0.0
2015-Aug-21 14:22N 01°17' E 103°46'13 3.5
2015-Aug-21 10:33N 01°11' E 103°34'13513.5
2015-Aug-21 00:33N 02°23' E 101°41'2015.7
2015-Aug-20 23:19N 02°35' E 101°25'2816.1
2015-Aug-20 21:34N 02°48' E 101°00'3216.1
2015-Aug-20 19:33N 03°09' E 100°35'65813.3
2015-Aug-18 18:00N 01°48' E 089°42'   150 / 111013.0 1.528.524.428.0

Dump ship's entire track history